Current | Forecast
Updated: 4:00 PM MSK on April 29, 2017
Observed at Begishevo, Russia
Temperature 66°F
Humidity 43%
Dew Point 43°F
Wind NNE at 16 mph
Pressure 30.33 in (Steady)
Conditions Partly Cloudy
Visibility 6.2 miles
UV 2 out of 16
Clouds (FEW) : 4000 ft
Yesterday's Maximum 70°F
Yesterday's Minimum 46°F approx.
Yesterday's Heating Degree Days 7 approx.
Sunrise3:54 AM MSK
Sunset7:04 PM MSK
Moon Rise6:13 AM MSK
Moon Set10:40 PM MSK
Moon PhaseMoon Phase
Waxing Crescent
Raw METARMETAR UWKE 291300Z 02007MPS 9999 FEW040 19/06 Q1027 R03/090070 NOSIG RMK QFE753/1004


Monday
. High: 71° F.
Tuesday
. High: 75° F.
Wednesday
. High: 66° F.
Thursday
. High: 53° F.
Friday
. High: 53° F.
Saturday
. High: 51° F.
Sunday
. High: 53° F.
Monday
. High: 59° F.

Units: English | Metric

Find the Weather for any City, State or Zipcode, or Country:

U.S. State List | Severe Weather | Tropical Storms | Ski Conditions
United States | Canada | Central America | South America | Asia | Europe | Australia | Africa | Islands

Weather Underground

© Copyright 2017
The Weather Company, LLC